sensor_id;sensor_type;location;lat;lon;timestamp;P1;durP1;ratioP1;P2;durP2;ratioP2
78718;SDS011;68046;53.334;9.538;2023-12-07T00:01:07;41.30;;;13.80;;
78718;SDS011;68046;53.334;9.538;2023-12-07T00:03:33;35.15;;;13.18;;
78718;SDS011;68046;53.334;9.538;2023-12-07T00:05:58;49.45;;;17.00;;
78718;SDS011;68046;53.334;9.538;2023-12-07T00:08:24;39.55;;;15.52;;
78718;SDS011;68046;53.334;9.538;2023-12-07T00:10:49;40.00;;;16.17;;
78718;SDS011;68046;53.334;9.538;2023-12-07T00:13:16;39.50;;;14.80;;
78718;SDS011;68046;53.334;9.538;2023-12-07T00:15:41;37.95;;;15.75;;
78718;SDS011;68046;53.334;9.538;2023-12-07T00:18:07;41.60;;;15.10;;
78718;SDS011;68046;53.334;9.538;2023-12-07T00:20:32;51.78;;;16.98;;
78718;SDS011;68046;53.334;9.538;2023-12-07T00:22:58;45.55;;;15.68;;
78718;SDS011;68046;53.334;9.538;2023-12-07T00:25:23;49.08;;;17.13;;
78718;SDS011;68046;53.334;9.538;2023-12-07T00:27:49;41.95;;;15.63;;
78718;SDS011;68046;53.334;9.538;2023-12-07T00:30:16;42.47;;;16.00;;
78718;SDS011;68046;53.334;9.538;2023-12-07T00:32:41;41.40;;;14.32;;
78718;SDS011;68046;53.334;9.538;2023-12-07T00:35:07;37.40;;;14.05;;
78718;SDS011;68046;53.334;9.538;2023-12-07T00:37:33;52.75;;;16.90;;
78718;SDS011;68046;53.334;9.538;2023-12-07T00:39:58;46.60;;;14.60;;
78718;SDS011;68046;53.334;9.538;2023-12-07T00:42:23;47.22;;;16.42;;
78718;SDS011;68046;53.334;9.538;2023-12-07T00:44:49;40.88;;;14.98;;
78718;SDS011;68046;53.334;9.538;2023-12-07T00:47:16;40.75;;;15.45;;
78718;SDS011;68046;53.334;9.538;2023-12-07T00:49:41;41.95;;;14.40;;
78718;SDS011;68046;53.334;9.538;2023-12-07T00:52:07;43.65;;;15.48;;
78718;SDS011;68046;53.334;9.538;2023-12-07T00:54:32;42.03;;;13.88;;
78718;SDS011;68046;53.334;9.538;2023-12-07T00:56:58;41.45;;;14.00;;
78718;SDS011;68046;53.334;9.538;2023-12-07T00:59:23;39.83;;;15.05;;
78718;SDS011;68046;53.334;9.538;2023-12-07T01:01:49;39.85;;;16.08;;
78718;SDS011;68046;53.334;9.538;2023-12-07T01:04:16;36.20;;;14.65;;
78718;SDS011;68046;53.334;9.538;2023-12-07T01:06:41;43.35;;;17.77;;
78718;SDS011;68046;53.334;9.538;2023-12-07T01:09:07;38.22;;;14.15;;
78718;SDS011;68046;53.334;9.538;2023-12-07T01:11:32;41.90;;;15.32;;
78718;SDS011;68046;53.334;9.538;2023-12-07T01:13:58;40.65;;;14.50;;
78718;SDS011;68046;53.334;9.538;2023-12-07T01:16:23;38.72;;;14.05;;
78718;SDS011;68046;53.334;9.538;2023-12-07T01:18:49;38.53;;;14.48;;
78718;SDS011;68046;53.334;9.538;2023-12-07T01:21:15;41.03;;;15.90;;
78718;SDS011;68046;53.334;9.538;2023-12-07T01:23:41;45.25;;;17.02;;
78718;SDS011;68046;53.334;9.538;2023-12-07T01:26:06;37.55;;;14.90;;
78718;SDS011;68046;53.334;9.538;2023-12-07T01:28:32;43.50;;;15.38;;
78718;SDS011;68046;53.334;9.538;2023-12-07T01:30:57;36.75;;;15.05;;
78718;SDS011;68046;53.334;9.538;2023-12-07T01:33:23;41.33;;;14.57;;
78718;SDS011;68046;53.334;9.538;2023-12-07T01:35:48;45.50;;;16.02;;
78718;SDS011;68046;53.334;9.538;2023-12-07T01:38:15;39.63;;;14.20;;
78718;SDS011;68046;53.334;9.538;2023-12-07T01:40:41;37.08;;;14.95;;
78718;SDS011;68046;53.334;9.538;2023-12-07T01:43:06;36.97;;;15.27;;
78718;SDS011;68046;53.334;9.538;2023-12-07T01:45:32;40.85;;;16.30;;
78718;SDS011;68046;53.334;9.538;2023-12-07T01:47:57;37.60;;;14.30;;
78718;SDS011;68046;53.334;9.538;2023-12-07T01:50:23;38.42;;;15.80;;
78718;SDS011;68046;53.334;9.538;2023-12-07T01:52:49;41.40;;;15.95;;
78718;SDS011;68046;53.334;9.538;2023-12-07T01:55:20;42.33;;;16.88;;
78718;SDS011;68046;53.334;9.538;2023-12-07T01:57:47;50.17;;;17.45;;
78718;SDS011;68046;53.334;9.538;2023-12-07T02:00:13;37.95;;;15.50;;
78718;SDS011;68046;53.334;9.538;2023-12-07T02:02:39;38.45;;;15.43;;
78718;SDS011;68046;53.334;9.538;2023-12-07T02:05:05;41.05;;;16.33;;
78718;SDS011;68046;53.334;9.538;2023-12-07T02:07:31;38.35;;;16.23;;
78718;SDS011;68046;53.334;9.538;2023-12-07T02:09:59;46.92;;;17.00;;
78718;SDS011;68046;53.334;9.538;2023-12-07T02:12:25;36.72;;;15.85;;
78718;SDS011;68046;53.334;9.538;2023-12-07T02:14:51;45.03;;;16.08;;
78718;SDS011;68046;53.334;9.538;2023-12-07T02:17:18;37.58;;;15.77;;
78718;SDS011;68046;53.334;9.538;2023-12-07T02:19:52;41.70;;;16.30;;
78718;SDS011;68046;53.334;9.538;2023-12-07T02:22:23;42.22;;;16.05;;
78718;SDS011;68046;53.334;9.538;2023-12-07T02:24:56;39.83;;;16.95;;
78718;SDS011;68046;53.334;9.538;2023-12-07T02:27:34;42.67;;;16.95;;
78718;SDS011;68046;53.334;9.538;2023-12-07T02:30:00;43.80;;;17.63;;
78718;SDS011;68046;53.334;9.538;2023-12-07T02:32:25;44.63;;;18.48;;
78718;SDS011;68046;53.334;9.538;2023-12-07T02:34:51;44.22;;;16.98;;
78718;SDS011;68046;53.334;9.538;2023-12-07T02:37:17;41.35;;;17.05;;
78718;SDS011;68046;53.334;9.538;2023-12-07T02:39:44;43.50;;;16.33;;
78718;SDS011;68046;53.334;9.538;2023-12-07T02:42:10;42.15;;;16.08;;
78718;SDS011;68046;53.334;9.538;2023-12-07T02:44:38;37.90;;;16.40;;
78718;SDS011;68046;53.334;9.538;2023-12-07T02:47:05;36.03;;;14.23;;
78718;SDS011;68046;53.334;9.538;2023-12-07T02:49:30;43.22;;;17.67;;
78718;SDS011;68046;53.334;9.538;2023-12-07T02:51:56;44.15;;;16.20;;
78718;SDS011;68046;53.334;9.538;2023-12-07T02:54:21;37.35;;;15.63;;
78718;SDS011;68046;53.334;9.538;2023-12-07T02:56:48;38.75;;;16.50;;
78718;SDS011;68046;53.334;9.538;2023-12-07T02:59:13;43.15;;;16.63;;
78718;SDS011;68046;53.334;9.538;2023-12-07T03:01:40;46.08;;;17.55;;
78718;SDS011;68046;53.334;9.538;2023-12-07T03:04:05;44.78;;;18.30;;
78718;SDS011;68046;53.334;9.538;2023-12-07T03:06:31;44.35;;;15.32;;
78718;SDS011;68046;53.334;9.538;2023-12-07T03:08:56;34.60;;;14.48;;
78718;SDS011;68046;53.334;9.538;2023-12-07T03:11:22;38.33;;;13.80;;
78718;SDS011;68046;53.334;9.538;2023-12-07T03:13:49;39.50;;;16.85;;
78718;SDS011;68046;53.334;9.538;2023-12-07T03:16:14;40.63;;;15.48;;
78718;SDS011;68046;53.334;9.538;2023-12-07T03:18:41;39.60;;;15.70;;
78718;SDS011;68046;53.334;9.538;2023-12-07T03:21:06;35.40;;;15.50;;
78718;SDS011;68046;53.334;9.538;2023-12-07T03:23:32;37.58;;;14.18;;
78718;SDS011;68046;53.334;9.538;2023-12-07T03:25:57;33.53;;;13.43;;
78718;SDS011;68046;53.334;9.538;2023-12-07T03:28:23;32.28;;;12.93;;
78718;SDS011;68046;53.334;9.538;2023-12-07T03:30:48;44.35;;;15.02;;
78718;SDS011;68046;53.334;9.538;2023-12-07T03:33:14;35.25;;;16.02;;
78718;SDS011;68046;53.334;9.538;2023-12-07T03:35:41;34.72;;;14.52;;
78718;SDS011;68046;53.334;9.538;2023-12-07T03:38:06;30.85;;;13.45;;
78718;SDS011;68046;53.334;9.538;2023-12-07T03:40:32;42.83;;;17.00;;
78718;SDS011;68046;53.334;9.538;2023-12-07T03:42:57;36.42;;;15.55;;
78718;SDS011;68046;53.334;9.538;2023-12-07T03:45:23;43.47;;;15.85;;
78718;SDS011;68046;53.334;9.538;2023-12-07T03:47:48;38.83;;;15.40;;
78718;SDS011;68046;53.334;9.538;2023-12-07T03:50:14;37.38;;;15.77;;
78718;SDS011;68046;53.334;9.538;2023-12-07T03:52:41;37.63;;;14.05;;
78718;SDS011;68046;53.334;9.538;2023-12-07T03:55:07;35.05;;;15.35;;
78718;SDS011;68046;53.334;9.538;2023-12-07T03:57:33;36.30;;;15.40;;
78718;SDS011;68046;53.334;9.538;2023-12-07T03:59:58;39.53;;;16.73;;
78718;SDS011;68046;53.334;9.538;2023-12-07T04:02:24;35.83;;;15.75;;
78718;SDS011;68046;53.334;9.538;2023-12-07T04:04:49;39.80;;;17.20;;
78718;SDS011;68046;53.334;9.538;2023-12-07T04:07:15;42.35;;;17.60;;
78718;SDS011;68046;53.334;9.538;2023-12-07T04:09:41;38.60;;;16.45;;
78718;SDS011;68046;53.334;9.538;2023-12-07T04:12:07;39.25;;;17.08;;
78718;SDS011;68046;53.334;9.538;2023-12-07T04:14:32;41.53;;;16.40;;
78718;SDS011;68046;53.334;9.538;2023-12-07T04:16:58;37.50;;;16.88;;
78718;SDS011;68046;53.334;9.538;2023-12-07T04:19:23;33.72;;;14.75;;
78718;SDS011;68046;53.334;9.538;2023-12-07T04:21:49;42.60;;;17.23;;
78718;SDS011;68046;53.334;9.538;2023-12-07T04:24:14;46.60;;;18.40;;
78718;SDS011;68046;53.334;9.538;2023-12-07T04:26:41;43.45;;;16.58;;
78718;SDS011;68046;53.334;9.538;2023-12-07T04:29:07;41.80;;;17.25;;
78718;SDS011;68046;53.334;9.538;2023-12-07T04:31:32;37.03;;;15.93;;
78718;SDS011;68046;53.334;9.538;2023-12-07T04:33:58;35.65;;;16.25;;
78718;SDS011;68046;53.334;9.538;2023-12-07T04:36:23;35.08;;;14.93;;
78718;SDS011;68046;53.334;9.538;2023-12-07T04:38:49;45.15;;;17.75;;
78718;SDS011;68046;53.334;9.538;2023-12-07T04:41:14;44.13;;;17.20;;
78718;SDS011;68046;53.334;9.538;2023-12-07T04:43:41;33.70;;;14.93;;
78718;SDS011;68046;53.334;9.538;2023-12-07T04:46:06;36.35;;;16.35;;
78718;SDS011;68046;53.334;9.538;2023-12-07T04:48:32;35.40;;;14.85;;
78718;SDS011;68046;53.334;9.538;2023-12-07T04:50:57;33.38;;;14.57;;
78718;SDS011;68046;53.334;9.538;2023-12-07T04:53:23;31.92;;;15.00;;
78718;SDS011;68046;53.334;9.538;2023-12-07T04:55:48;40.40;;;14.57;;
78718;SDS011;68046;53.334;9.538;2023-12-07T04:58:14;38.58;;;16.80;;
78718;SDS011;68046;53.334;9.538;2023-12-07T05:00:41;33.95;;;15.00;;
78718;SDS011;68046;53.334;9.538;2023-12-07T05:03:06;37.90;;;15.85;;
78718;SDS011;68046;53.334;9.538;2023-12-07T05:05:32;30.95;;;13.13;;
78718;SDS011;68046;53.334;9.538;2023-12-07T05:07:57;35.20;;;16.33;;
78718;SDS011;68046;53.334;9.538;2023-12-07T05:10:23;33.08;;;14.73;;
78718;SDS011;68046;53.334;9.538;2023-12-07T05:12:48;33.28;;;13.88;;
78718;SDS011;68046;53.334;9.538;2023-12-07T05:15:14;33.65;;;14.27;;
78718;SDS011;68046;53.334;9.538;2023-12-07T05:17:40;32.47;;;15.02;;
78718;SDS011;68046;53.334;9.538;2023-12-07T05:20:06;35.78;;;14.70;;
78718;SDS011;68046;53.334;9.538;2023-12-07T05:22:33;29.27;;;13.07;;
78718;SDS011;68046;53.334;9.538;2023-12-07T05:24:58;33.45;;;14.70;;
78718;SDS011;68046;53.334;9.538;2023-12-07T05:27:24;30.30;;;12.82;;
78718;SDS011;68046;53.334;9.538;2023-12-07T05:29:49;39.42;;;17.40;;
78718;SDS011;68046;53.334;9.538;2023-12-07T05:32:15;35.33;;;13.05;;
78718;SDS011;68046;53.334;9.538;2023-12-07T05:34:41;32.75;;;14.00;;
78718;SDS011;68046;53.334;9.538;2023-12-07T05:37:07;35.97;;;13.55;;
78718;SDS011;68046;53.334;9.538;2023-12-07T05:39:32;35.78;;;13.70;;
78718;SDS011;68046;53.334;9.538;2023-12-07T05:41:58;31.25;;;12.18;;
78718;SDS011;68046;53.334;9.538;2023-12-07T05:44:23;30.63;;;13.70;;
78718;SDS011;68046;53.334;9.538;2023-12-07T05:46:49;34.83;;;14.60;;
78718;SDS011;68046;53.334;9.538;2023-12-07T05:49:14;28.92;;;13.80;;
78718;SDS011;68046;53.334;9.538;2023-12-07T05:51:41;32.55;;;13.15;;
78718;SDS011;68046;53.334;9.538;2023-12-07T05:54:07;30.75;;;12.40;;
78718;SDS011;68046;53.334;9.538;2023-12-07T05:56:32;30.90;;;12.07;;
78718;SDS011;68046;53.334;9.538;2023-12-07T05:58:58;23.98;;;11.63;;
78718;SDS011;68046;53.334;9.538;2023-12-07T06:01:23;29.67;;;12.18;;
78718;SDS011;68046;53.334;9.538;2023-12-07T06:03:49;33.13;;;13.73;;
78718;SDS011;68046;53.334;9.538;2023-12-07T06:06:15;24.58;;;11.48;;
78718;SDS011;68046;53.334;9.538;2023-12-07T06:08:42;27.08;;;10.38;;
78718;SDS011;68046;53.334;9.538;2023-12-07T06:11:07;29.45;;;13.00;;
78718;SDS011;68046;53.334;9.538;2023-12-07T06:13:33;30.88;;;12.98;;
78718;SDS011;68046;53.334;9.538;2023-12-07T06:15:58;29.55;;;12.70;;
78718;SDS011;68046;53.334;9.538;2023-12-07T06:18:24;28.73;;;12.20;;
78718;SDS011;68046;53.334;9.538;2023-12-07T06:20:49;25.10;;;11.55;;
78718;SDS011;68046;53.334;9.538;2023-12-07T06:23:15;27.58;;;11.90;;
78718;SDS011;68046;53.334;9.538;2023-12-07T06:25:42;28.80;;;12.77;;
78718;SDS011;68046;53.334;9.538;2023-12-07T06:28:07;31.13;;;13.73;;
78718;SDS011;68046;53.334;9.538;2023-12-07T06:30:33;30.65;;;14.07;;
78718;SDS011;68046;53.334;9.538;2023-12-07T06:32:58;29.15;;;13.00;;
78718;SDS011;68046;53.334;9.538;2023-12-07T06:35:24;24.38;;;11.68;;
78718;SDS011;68046;53.334;9.538;2023-12-07T06:37:49;32.92;;;13.32;;
78718;SDS011;68046;53.334;9.538;2023-12-07T06:40:15;30.92;;;11.55;;
78718;SDS011;68046;53.334;9.538;2023-12-07T06:42:42;28.98;;;11.65;;
78718;SDS011;68046;53.334;9.538;2023-12-07T06:45:07;24.50;;;12.02;;
78718;SDS011;68046;53.334;9.538;2023-12-07T06:47:33;25.52;;;11.43;;
78718;SDS011;68046;53.334;9.538;2023-12-07T06:49:59;23.83;;;10.88;;
78718;SDS011;68046;53.334;9.538;2023-12-07T06:52:24;28.30;;;11.98;;
78718;SDS011;68046;53.334;9.538;2023-12-07T06:54:50;27.23;;;12.30;;
78718;SDS011;68046;53.334;9.538;2023-12-07T06:57:15;29.02;;;12.73;;
78718;SDS011;68046;53.334;9.538;2023-12-07T06:59:42;25.00;;;10.77;;
78718;SDS011;68046;53.334;9.538;2023-12-07T07:02:08;23.23;;;10.88;;
78718;SDS011;68046;53.334;9.538;2023-12-07T07:04:33;30.02;;;13.23;;
78718;SDS011;68046;53.334;9.538;2023-12-07T07:06:59;26.10;;;10.18;;
78718;SDS011;68046;53.334;9.538;2023-12-07T07:09:24;28.48;;;12.60;;
78718;SDS011;68046;53.334;9.538;2023-12-07T07:11:50;27.00;;;11.57;;
78718;SDS011;68046;53.334;9.538;2023-12-07T07:14:15;33.97;;;13.93;;
78718;SDS011;68046;53.334;9.538;2023-12-07T07:16:42;38.28;;;15.52;;
78718;SDS011;68046;53.334;9.538;2023-12-07T07:19:08;27.52;;;12.23;;
78718;SDS011;68046;53.334;9.538;2023-12-07T07:21:34;32.92;;;14.05;;
78718;SDS011;68046;53.334;9.538;2023-12-07T07:24:00;33.00;;;12.82;;
78718;SDS011;68046;53.334;9.538;2023-12-07T07:26:25;29.08;;;11.65;;
78718;SDS011;68046;53.334;9.538;2023-12-07T07:28:51;25.83;;;11.05;;
78718;SDS011;68046;53.334;9.538;2023-12-07T07:31:17;28.38;;;12.52;;
78718;SDS011;68046;53.334;9.538;2023-12-07T07:33:44;25.05;;;11.18;;
78718;SDS011;68046;53.334;9.538;2023-12-07T07:36:10;21.55;;;11.05;;
78718;SDS011;68046;53.334;9.538;2023-12-07T07:38:35;27.10;;;10.60;;
78718;SDS011;68046;53.334;9.538;2023-12-07T07:41:01;22.92;;;10.00;;
78718;SDS011;68046;53.334;9.538;2023-12-07T07:43:26;24.70;;;10.18;;
78718;SDS011;68046;53.334;9.538;2023-12-07T07:45:51;24.50;;;9.93;;
78718;SDS011;68046;53.334;9.538;2023-12-07T07:48:17;21.40;;;7.95;;
78718;SDS011;68046;53.334;9.538;2023-12-07T07:50:44;18.95;;;8.98;;
78718;SDS011;68046;53.334;9.538;2023-12-07T07:53:09;86.40;;;11.45;;
78718;SDS011;68046;53.334;9.538;2023-12-07T07:55:35;47.42;;;7.85;;
78718;SDS011;68046;53.334;9.538;2023-12-07T07:58:00;16.83;;;8.48;;
78718;SDS011;68046;53.334;9.538;2023-12-07T08:00:26;18.25;;;8.13;;
78718;SDS011;68046;53.334;9.538;2023-12-07T08:02:51;24.10;;;9.35;;
78718;SDS011;68046;53.334;9.538;2023-12-07T08:05:17;15.63;;;7.93;;
78718;SDS011;68046;53.334;9.538;2023-12-07T08:07:44;16.95;;;8.70;;
78718;SDS011;68046;53.334;9.538;2023-12-07T08:10:09;20.48;;;8.18;;
78718;SDS011;68046;53.334;9.538;2023-12-07T08:12:35;23.10;;;10.48;;
78718;SDS011;68046;53.334;9.538;2023-12-07T08:15:00;22.48;;;9.52;;
78718;SDS011;68046;53.334;9.538;2023-12-07T08:17:26;24.00;;;10.27;;
78718;SDS011;68046;53.334;9.538;2023-12-07T08:19:52;27.40;;;11.15;;
78718;SDS011;68046;53.334;9.538;2023-12-07T08:22:17;23.33;;;10.18;;
78718;SDS011;68046;53.334;9.538;2023-12-07T08:24:44;27.02;;;10.35;;
78718;SDS011;68046;53.334;9.538;2023-12-07T08:27:09;38.00;;;11.02;;
78718;SDS011;68046;53.334;9.538;2023-12-07T08:29:35;26.00;;;9.88;;
78718;SDS011;68046;53.334;9.538;2023-12-07T08:32:00;53.30;;;10.95;;
78718;SDS011;68046;53.334;9.538;2023-12-07T08:34:26;21.98;;;9.07;;
78718;SDS011;68046;53.334;9.538;2023-12-07T08:36:51;70.93;;;11.07;;
78718;SDS011;68046;53.334;9.538;2023-12-07T08:39:18;27.85;;;10.07;;
78718;SDS011;68046;53.334;9.538;2023-12-07T08:41:45;20.17;;;9.38;;
78718;SDS011;68046;53.334;9.538;2023-12-07T08:44:10;46.78;;;10.07;;
78718;SDS011;68046;53.334;9.538;2023-12-07T08:46:35;32.83;;;10.77;;
78718;SDS011;68046;53.334;9.538;2023-12-07T08:49:01;24.75;;;10.48;;
78718;SDS011;68046;53.334;9.538;2023-12-07T08:51:27;24.52;;;10.18;;
78718;SDS011;68046;53.334;9.538;2023-12-07T08:53:53;22.83;;;10.93;;
78718;SDS011;68046;53.334;9.538;2023-12-07T08:56:19;23.92;;;10.98;;
78718;SDS011;68046;53.334;9.538;2023-12-07T08:58:47;19.92;;;9.50;;
78718;SDS011;68046;53.334;9.538;2023-12-07T09:01:12;20.50;;;8.93;;
78718;SDS011;68046;53.334;9.538;2023-12-07T09:03:38;22.88;;;8.93;;
78718;SDS011;68046;53.334;9.538;2023-12-07T09:06:03;23.38;;;11.05;;
78718;SDS011;68046;53.334;9.538;2023-12-07T09:08:29;21.05;;;10.38;;
78718;SDS011;68046;53.334;9.538;2023-12-07T09:10:55;21.85;;;10.02;;
78718;SDS011;68046;53.334;9.538;2023-12-07T09:13:20;22.20;;;9.48;;
78718;SDS011;68046;53.334;9.538;2023-12-07T09:15:47;25.17;;;11.00;;
78718;SDS011;68046;53.334;9.538;2023-12-07T09:18:13;28.80;;;11.98;;
78718;SDS011;68046;53.334;9.538;2023-12-07T09:20:38;29.08;;;12.00;;
78718;SDS011;68046;53.334;9.538;2023-12-07T09:23:04;29.80;;;12.60;;
78718;SDS011;68046;53.334;9.538;2023-12-07T09:25:30;34.78;;;13.63;;
78718;SDS011;68046;53.334;9.538;2023-12-07T09:27:55;29.63;;;12.07;;
78718;SDS011;68046;53.334;9.538;2023-12-07T09:30:21;29.95;;;13.70;;
78718;SDS011;68046;53.334;9.538;2023-12-07T09:32:48;29.88;;;12.65;;
78718;SDS011;68046;53.334;9.538;2023-12-07T09:35:13;25.67;;;11.77;;
78718;SDS011;68046;53.334;9.538;2023-12-07T09:37:39;24.73;;;12.35;;
78718;SDS011;68046;53.334;9.538;2023-12-07T09:40:05;24.80;;;9.73;;
78718;SDS011;68046;53.334;9.538;2023-12-07T09:42:31;20.83;;;10.00;;
78718;SDS011;68046;53.334;9.538;2023-12-07T09:44:57;28.70;;;12.90;;
78718;SDS011;68046;53.334;9.538;2023-12-07T09:47:22;29.92;;;14.00;;
78718;SDS011;68046;53.334;9.538;2023-12-07T09:49:50;26.65;;;11.45;;
78718;SDS011;68046;53.334;9.538;2023-12-07T09:52:15;23.45;;;9.82;;
78718;SDS011;68046;53.334;9.538;2023-12-07T09:54:42;29.92;;;12.52;;
78718;SDS011;68046;53.334;9.538;2023-12-07T09:57:08;36.00;;;14.23;;
78718;SDS011;68046;53.334;9.538;2023-12-07T09:59:34;32.80;;;12.90;;
78718;SDS011;68046;53.334;9.538;2023-12-07T10:02:00;35.67;;;14.90;;
78718;SDS011;68046;53.334;9.538;2023-12-07T10:04:25;30.75;;;13.18;;
78718;SDS011;68046;53.334;9.538;2023-12-07T10:06:52;31.30;;;13.65;;
78718;SDS011;68046;53.334;9.538;2023-12-07T10:09:18;30.55;;;12.93;;
78718;SDS011;68046;53.334;9.538;2023-12-07T10:11:44;33.13;;;12.43;;
78718;SDS011;68046;53.334;9.538;2023-12-07T10:14:09;30.48;;;13.57;;
78718;SDS011;68046;53.334;9.538;2023-12-07T10:16:35;31.30;;;13.38;;
78718;SDS011;68046;53.334;9.538;2023-12-07T10:19:12;24.55;;;11.70;;
78718;SDS011;68046;53.334;9.538;2023-12-07T10:21:38;33.35;;;13.43;;
78718;SDS011;68046;53.334;9.538;2023-12-07T10:24:05;30.17;;;13.98;;
78718;SDS011;68046;53.334;9.538;2023-12-07T10:26:31;30.85;;;12.55;;
78718;SDS011;68046;53.334;9.538;2023-12-07T10:28:56;27.67;;;12.45;;
78718;SDS011;68046;53.334;9.538;2023-12-07T10:31:22;27.67;;;11.80;;
78718;SDS011;68046;53.334;9.538;2023-12-07T10:33:48;38.00;;;14.75;;
78718;SDS011;68046;53.334;9.538;2023-12-07T10:36:14;34.17;;;13.57;;
78718;SDS011;68046;53.334;9.538;2023-12-07T10:38:40;32.53;;;12.63;;
78718;SDS011;68046;53.334;9.538;2023-12-07T10:41:07;33.90;;;14.05;;
78718;SDS011;68046;53.334;9.538;2023-12-07T10:43:37;34.15;;;14.32;;
78718;SDS011;68046;53.334;9.538;2023-12-07T10:46:07;28.20;;;12.57;;
78718;SDS011;68046;53.334;9.538;2023-12-07T10:48:34;30.83;;;13.55;;
78718;SDS011;68046;53.334;9.538;2023-12-07T10:51:01;31.88;;;13.73;;
78718;SDS011;68046;53.334;9.538;2023-12-07T10:55:59;29.35;;;12.18;;
78718;SDS011;68046;53.334;9.538;2023-12-07T10:58:27;30.88;;;13.65;;
78718;SDS011;68046;53.334;9.538;2023-12-07T11:00:53;32.50;;;14.18;;
78718;SDS011;68046;53.334;9.538;2023-12-07T11:03:19;32.53;;;13.70;;
78718;SDS011;68046;53.334;9.538;2023-12-07T11:05:45;33.95;;;13.60;;
78718;SDS011;68046;53.334;9.538;2023-12-07T11:08:11;30.77;;;12.43;;
78718;SDS011;68046;53.334;9.538;2023-12-07T11:10:47;34.28;;;13.80;;
78718;SDS011;68046;53.334;9.538;2023-12-07T11:13:20;27.65;;;11.35;;
78718;SDS011;68046;53.334;9.538;2023-12-07T11:15:51;28.67;;;12.65;;
78718;SDS011;68046;53.334;9.538;2023-12-07T11:18:17;27.83;;;13.10;;
78718;SDS011;68046;53.334;9.538;2023-12-07T11:20:42;31.92;;;13.10;;
78718;SDS011;68046;53.334;9.538;2023-12-07T11:23:09;29.65;;;12.68;;
78718;SDS011;68046;53.334;9.538;2023-12-07T11:25:34;27.38;;;12.60;;
78718;SDS011;68046;53.334;9.538;2023-12-07T11:28:00;31.85;;;13.05;;
78718;SDS011;68046;53.334;9.538;2023-12-07T11:30:26;28.27;;;12.70;;
78718;SDS011;68046;53.334;9.538;2023-12-07T11:32:53;31.75;;;14.02;;
78718;SDS011;68046;53.334;9.538;2023-12-07T11:35:19;37.63;;;13.88;;
78718;SDS011;68046;53.334;9.538;2023-12-07T11:38:04;28.45;;;12.93;;
78718;SDS011;68046;53.334;9.538;2023-12-07T11:40:31;28.50;;;12.32;;
78718;SDS011;68046;53.334;9.538;2023-12-07T11:42:58;35.40;;;13.18;;
78718;SDS011;68046;53.334;9.538;2023-12-07T11:45:37;34.80;;;13.77;;
78718;SDS011;68046;53.334;9.538;2023-12-07T11:48:08;26.70;;;12.30;;
78718;SDS011;68046;53.334;9.538;2023-12-07T11:50:34;29.83;;;11.93;;
78718;SDS011;68046;53.334;9.538;2023-12-07T11:53:00;29.35;;;12.13;;
78718;SDS011;68046;53.334;9.538;2023-12-07T11:55:25;27.92;;;11.98;;
78718;SDS011;68046;53.334;9.538;2023-12-07T11:57:51;29.30;;;11.65;;
78718;SDS011;68046;53.334;9.538;2023-12-07T12:00:17;31.83;;;13.15;;
78718;SDS011;68046;53.334;9.538;2023-12-07T12:02:42;25.63;;;12.48;;
78718;SDS011;68046;53.334;9.538;2023-12-07T12:05:13;29.80;;;11.90;;
78718;SDS011;68046;53.334;9.538;2023-12-07T12:07:38;26.42;;;11.05;;
78718;SDS011;68046;53.334;9.538;2023-12-07T12:10:04;26.02;;;11.65;;
78718;SDS011;68046;53.334;9.538;2023-12-07T12:12:32;29.88;;;10.82;;
78718;SDS011;68046;53.334;9.538;2023-12-07T12:14:58;29.00;;;13.07;;
78718;SDS011;68046;53.334;9.538;2023-12-07T12:17:23;25.60;;;12.35;;
78718;SDS011;68046;53.334;9.538;2023-12-07T12:19:49;26.50;;;12.70;;
78718;SDS011;68046;53.334;9.538;2023-12-07T12:22:16;21.50;;;10.77;;
78718;SDS011;68046;53.334;9.538;2023-12-07T12:24:41;29.23;;;11.60;;
78718;SDS011;68046;53.334;9.538;2023-12-07T12:27:07;27.67;;;10.55;;
78718;SDS011;68046;53.334;9.538;2023-12-07T12:29:33;22.80;;;9.88;;
78718;SDS011;68046;53.334;9.538;2023-12-07T12:31:59;26.02;;;12.00;;
78718;SDS011;68046;53.334;9.538;2023-12-07T12:34:25;29.30;;;12.70;;
78718;SDS011;68046;53.334;9.538;2023-12-07T12:36:51;24.30;;;11.40;;
78718;SDS011;68046;53.334;9.538;2023-12-07T12:39:27;32.88;;;13.20;;
78718;SDS011;68046;53.334;9.538;2023-12-07T12:41:54;30.42;;;12.00;;
78718;SDS011;68046;53.334;9.538;2023-12-07T12:44:19;25.38;;;11.68;;
78718;SDS011;68046;53.334;9.538;2023-12-07T12:46:45;26.52;;;11.07;;
78718;SDS011;68046;53.334;9.538;2023-12-07T12:49:10;28.30;;;12.35;;
78718;SDS011;68046;53.334;9.538;2023-12-07T12:51:36;27.70;;;12.35;;
78718;SDS011;68046;53.334;9.538;2023-12-07T12:54:03;25.80;;;12.25;;
78718;SDS011;68046;53.334;9.538;2023-12-07T12:56:30;29.58;;;12.02;;
78718;SDS011;68046;53.334;9.538;2023-12-07T12:58:55;31.13;;;12.55;;
78718;SDS011;68046;53.334;9.538;2023-12-07T13:01:22;25.38;;;11.75;;
78718;SDS011;68046;53.334;9.538;2023-12-07T13:03:47;27.23;;;11.35;;
78718;SDS011;68046;53.334;9.538;2023-12-07T13:06:13;28.35;;;12.30;;
78718;SDS011;68046;53.334;9.538;2023-12-07T13:08:39;28.10;;;12.57;;
78718;SDS011;68046;53.334;9.538;2023-12-07T13:11:05;27.95;;;10.80;;
78718;SDS011;68046;53.334;9.538;2023-12-07T13:13:32;25.02;;;10.90;;
78718;SDS011;68046;53.334;9.538;2023-12-07T13:15:57;23.83;;;12.07;;
78718;SDS011;68046;53.334;9.538;2023-12-07T13:18:23;23.42;;;10.88;;
78718;SDS011;68046;53.334;9.538;2023-12-07T13:20:48;28.90;;;12.35;;
78718;SDS011;68046;53.334;9.538;2023-12-07T13:23:14;30.85;;;11.57;;
78718;SDS011;68046;53.334;9.538;2023-12-07T13:25:39;25.83;;;12.68;;
78718;SDS011;68046;53.334;9.538;2023-12-07T13:28:05;28.65;;;11.80;;
78718;SDS011;68046;53.334;9.538;2023-12-07T13:30:32;29.80;;;11.40;;
78718;SDS011;68046;53.334;9.538;2023-12-07T13:32:58;29.77;;;11.98;;
78718;SDS011;68046;53.334;9.538;2023-12-07T13:35:23;29.33;;;12.68;;
78718;SDS011;68046;53.334;9.538;2023-12-07T13:37:49;25.13;;;11.60;;
78718;SDS011;68046;53.334;9.538;2023-12-07T13:40:14;24.58;;;10.30;;
78718;SDS011;68046;53.334;9.538;2023-12-07T13:42:40;24.60;;;10.68;;
78718;SDS011;68046;53.334;9.538;2023-12-07T13:45:05;24.75;;;11.25;;
78718;SDS011;68046;53.334;9.538;2023-12-07T13:47:33;26.45;;;13.38;;
78718;SDS011;68046;53.334;9.538;2023-12-07T13:49:59;23.77;;;11.82;;
78718;SDS011;68046;53.334;9.538;2023-12-07T13:52:26;29.92;;;11.65;;
78718;SDS011;68046;53.334;9.538;2023-12-07T13:54:51;26.48;;;12.35;;
78718;SDS011;68046;53.334;9.538;2023-12-07T13:57:17;26.88;;;11.30;;
78718;SDS011;68046;53.334;9.538;2023-12-07T13:59:43;25.58;;;11.25;;
78718;SDS011;68046;53.334;9.538;2023-12-07T14:02:09;24.17;;;11.75;;
78718;SDS011;68046;53.334;9.538;2023-12-07T14:04:35;21.80;;;10.23;;
78718;SDS011;68046;53.334;9.538;2023-12-07T14:07:06;29.50;;;12.00;;
78718;SDS011;68046;53.334;9.538;2023-12-07T14:09:32;24.58;;;11.20;;
78718;SDS011;68046;53.334;9.538;2023-12-07T14:11:58;22.58;;;10.13;;
78718;SDS011;68046;53.334;9.538;2023-12-07T14:14:23;27.55;;;11.00;;
78718;SDS011;68046;53.334;9.538;2023-12-07T14:16:49;27.95;;;11.40;;
78718;SDS011;68046;53.334;9.538;2023-12-07T14:19:14;26.10;;;12.07;;